Hazte SocioAcceso socios

METEO en el Aeródromo de Mutxamel (LEMU)

Horarios

ESTAMOS EN UTC +2

ORTO: 04:44 (UTC)
OCASO: 19:13 (UTC)

Previsión en los próximos días en Windy

METAR del Aeropuerto de Alicante (LEAL)

LEAL 232230Z 06006KT 9999 FEW010 19/17 Q1017 NOSIG

TAF del Aeropuerto de Alicante (LEAL)

TAF LEAL 231700Z 2318/2418 08010KT 9999 FEW020 TX24/2415Z TN14/2406Z BECMG 2321/2324 VRB03KT BECMG 2408/2410 08010KT TEMPO 2410/2418 08015G25KT

Otros enlaces útiles

Renuncia de responsabilidad

La información meteorológica ofrecida en esta página es un servicio de cortesía del Club Deportivo ANR, basado en varias fuentes, y en ningún caso constituye una información oficial. Es responsabilidad del piloto al mando obtener la información meteorológica actualizada desde fuentes oficiales.

En España, la información meteorológica oficial la ofrece la Agencia Española de Meteorología en general y en particular, a través de su Autoservicio Meteorológico Aeronáutico.

Partida Almaina núm 92. 03110 Mutxamel (Alicante).España
info@clubdeportivoanr.com
Inscrito en registro EDCV número 11003/1
Inscrito en la RFAE número C-701
Consulte nuestra política de privacidad